Time;durP1;ratioP1;P1;durP2;ratioP2;P2;SDS_P1;SDS_P2;PMS_P1;PMS_P2;Temp;Humidity;BMP_temperature;BMP_pressure;BME280_temperature;BME280_humidity;BME280_pressure;Samples;Min_cycle;Max_cycle;Signal;HPM_P1;HPM_P2
2023/07/20 00:01:34;;;;;;;9.33;3.80;;;;;;;12.50;100.00;100737.16;5030267;28;20408;-75
2023/07/20 00:04:00;;;;;;;7.40;3.63;;;;;;;12.51;100.00;100722.78;5030104;28;20381;-75
2023/07/20 00:06:27;;;;;;;6.10;3.73;;;;;;;12.41;100.00;100723.00;5048350;28;20337;-75
2023/07/20 00:08:54;;;;;;;7.65;4.63;;;;;;;12.41;100.00;100728.38;5048330;28;20064;-75
2023/07/20 00:11:20;;;;;;;6.93;4.50;;;;;;;12.36;100.00;100733.38;5030250;28;20021;-75
2023/07/20 00:13:45;;;;;;;7.55;4.50;;;;;;;12.38;100.00;100732.19;5047739;28;20029;-75
2023/07/20 00:16:10;;;;;;;12.20;4.43;;;;;;;12.34;100.00;100728.22;5030527;28;20067;-75
2023/07/20 00:18:36;;;;;;;9.30;4.50;;;;;;;12.31;100.00;100727.72;5048140;28;20032;-75
2023/07/20 00:21:01;;;;;;;7.33;4.70;;;;;;;12.28;100.00;100720.88;5030155;28;20425;-75
2023/07/20 00:23:27;;;;;;;5.07;3.65;;;;;;;12.21;100.00;100718.06;5047882;28;20021;-74
2023/07/20 00:25:52;;;;;;;5.63;4.40;;;;;;;12.08;100.00;100711.59;5047557;28;20527;-75
2023/07/20 00:28:18;;;;;;;5.63;3.63;;;;;;;12.07;100.00;100725.97;5030087;28;20436;-74
2023/07/20 00:30:43;;;;;;;5.27;3.50;;;;;;;12.01;100.00;100714.97;5029969;28;20024;-75
2023/07/20 00:33:12;;;;;;;9.48;4.18;;;;;;;12.00;100.00;100725.84;5029520;28;20503;-74
2023/07/20 00:35:39;;;;;;;7.72;4.00;;;;;;;11.94;100.00;100729.19;5029774;28;20457;-74
2023/07/20 00:38:04;;;;;;;10.13;4.72;;;;;;;12.00;100.00;100736.53;5029855;28;20025;-74
2023/07/20 00:40:40;;;;;;;9.80;4.55;;;;;;;11.99;100.00;100725.00;5029736;28;20037;-74
2023/07/20 00:43:05;;;;;;;10.90;5.18;;;;;;;12.00;100.00;100725.84;5045804;28;20043;-74
2023/07/20 00:45:33;;;;;;;7.22;5.10;;;;;;;12.00;100.00;100726.66;5030049;28;20021;-74
2023/07/20 00:47:59;;;;;;;7.85;5.85;;;;;;;11.99;100.00;100724.19;5044778;28;20045;-74
2023/07/20 00:50:25;;;;;;;;;;;;;;;12.04;100.00;100727.16;5029973;28;20020;-74
2023/07/20 00:52:51;;;;;;;8.75;4.63;;;;;;;12.04;100.00;100735.19;5028828;28;19967;-74
2023/07/20 00:55:19;;;;;;;9.63;5.22;;;;;;;12.01;100.00;100727.50;5029585;28;20115;-75
2023/07/20 00:57:44;;;;;;;10.30;5.60;;;;;;;11.97;100.00;100720.84;5029527;28;20028;-74
2023/07/20 01:00:10;;;;;;;14.03;7.03;;;;;;;12.14;100.00;100732.31;5029380;28;20025;-74
2023/07/20 01:02:36;;;;;;;9.13;5.80;;;;;;;12.10;100.00;100726.44;5028841;28;20033;-74
2023/07/20 01:05:03;;;;;;;10.52;5.47;;;;;;;12.14;100.00;100738.50;5012709;28;20439;-75
2023/07/20 01:07:49;;;;;;;11.55;6.55;;;;;;;12.14;100.00;100735.81;5029013;28;20489;-74
2023/07/20 01:10:30;;;;;;;14.00;6.00;;;;;;;12.11;100.00;100741.53;5021933;28;20147;-74
2023/07/20 01:12:57;;;;;;;10.23;5.07;;;;;;;12.15;100.00;100737.50;5040491;28;20024;-74
2023/07/20 01:15:22;;;;;;;7.63;5.10;;;;;;;12.20;100.00;100743.16;5029137;28;20364;-75
2023/07/20 01:17:47;;;;;;;9.67;5.90;;;;;;;12.15;100.00;100742.84;5027340;28;20029;-74
2023/07/20 01:20:15;;;;;;;10.77;6.37;;;;;;;12.18;100.00;100739.81;5028859;28;20124;-74
2023/07/20 01:23:19;;;;;;;7.53;5.28;;;;;;;12.19;100.00;100751.34;5028660;28;20071;-74
2023/07/20 01:26:11;;;;;;;10.80;6.18;;;;;;;12.22;100.00;100749.19;5045008;28;20029;-74
2023/07/20 01:28:56;;;;;;;9.35;5.72;;;;;;;12.21;100.00;100752.84;5023086;28;20025;-75
2023/07/20 01:31:26;;;;;;;12.75;6.03;;;;;;;12.28;100.00;100752.16;5013137;28;20033;-75
2023/07/20 01:33:55;;;;;;;11.00;6.88;;;;;;;12.23;100.00;100750.00;5027912;28;20033;-75
2023/07/20 01:36:23;;;;;;;9.50;5.95;;;;;;;12.17;100.00;100743.50;5045494;28;20116;-75
2023/07/20 01:38:49;;;;;;;9.95;6.63;;;;;;;12.27;100.00;100747.81;5028655;28;20025;-74
2023/07/20 01:41:15;;;;;;;11.73;6.15;;;;;;;12.23;100.00;100739.31;5028726;28;20067;-75
2023/07/20 01:43:43;;;;;;;9.18;6.07;;;;;;;12.23;100.00;100736.63;5046389;28;20526;-75
2023/07/20 01:46:09;;;;;;;10.63;7.05;;;;;;;12.17;100.00;100731.94;5028665;28;20036;-75
2023/07/20 01:48:34;;;;;;;16.80;7.17;;;;;;;12.13;100.00;100734.16;5028504;28;20021;-74
2023/07/20 01:51:00;;;;;;;13.07;6.60;;;;;;;12.15;100.00;100734.81;5046028;28;20025;-75
2023/07/20 01:53:26;;;;;;;12.23;7.37;;;;;;;12.15;100.00;100732.16;5044657;28;20032;-75
2023/07/20 01:55:54;;;;;;;13.63;6.70;;;;;;;12.12;100.00;100734.31;5046134;28;20033;-74
2023/07/20 01:58:20;;;;;;;11.80;6.18;;;;;;;12.10;100.00;100731.81;5028247;28;20075;-75
2023/07/20 02:00:46;;;;;;;11.27;7.13;;;;;;;12.08;100.00;100731.16;5027936;28;20025;-75
2023/07/20 02:03:11;;;;;;;12.07;7.57;;;;;;;12.08;100.00;100733.84;5027868;28;20037;-75
2023/07/20 02:05:37;;;;;;;12.98;7.97;;;;;;;12.10;100.00;100737.16;5046316;28;20279;-74
2023/07/20 02:08:03;;;;;;;14.70;8.20;;;;;;;12.04;100.00;100722.63;5021735;28;20385;-74
2023/07/20 02:10:28;;;;;;;14.13;8.17;;;;;;;12.00;100.00;100726.66;5028014;28;20111;-75
2023/07/20 02:12:54;;;;;;;11.50;7.90;;;;;;;11.92;100.00;100729.38;5045378;28;20647;-75
2023/07/20 02:15:20;;;;;;;15.02;8.60;;;;;;;12.02;100.00;100739.88;5045839;28;20025;-75
2023/07/20 02:17:45;;;;;;;13.48;8.23;;;;;;;12.02;100.00;100739.88;5027968;28;20037;-74
2023/07/20 02:20:11;;;;;;;13.37;8.33;;;;;;;12.01;100.00;100738.19;5027213;28;20029;-75
2023/07/20 02:22:37;;;;;;;13.55;8.48;;;;;;;11.95;100.00;100730.88;5011250;28;20784;-75
2023/07/20 02:25:07;;;;;;;;;;;;;;;11.95;100.00;100739.72;5045181;28;20037;-74
2023/07/20 02:27:36;;;;;;;17.83;7.82;;;;;;;11.94;100.00;100737.22;5027881;28;19951;-75
2023/07/20 02:30:02;;;;;;;15.40;7.70;;;;;;;11.93;100.00;100727.53;5043338;28;20044;-74
2023/07/20 02:32:28;;;;;;;14.25;8.20;;;;;;;11.89;100.00;100728.88;5027065;28;20041;-75
2023/07/20 02:34:53;;;;;;;18.25;8.35;;;;;;;11.90;100.00;100727.88;5027362;28;20044;-75
2023/07/20 02:37:19;;;;;;;14.45;7.70;;;;;;;11.88;100.00;100727.22;5027501;28;20389;-75
2023/07/20 02:39:44;;;;;;;11.87;7.87;;;;;;;11.84;100.00;100729.34;4999092;28;20068;-74
2023/07/20 02:42:10;;;;;;;15.95;7.13;;;;;;;11.88;100.00;100728.03;5027144;28;20025;-74
2023/07/20 02:44:36;;;;;;;15.75;8.30;;;;;;;11.82;100.00;100729.53;5011749;28;20017;-75
2023/07/20 02:47:01;;;;;;;10.90;6.30;;;;;;;11.81;100.00;100727.03;5027627;28;20075;-75
2023/07/20 02:49:27;;;;;;;15.27;7.20;;;;;;;11.79;100.00;100726.38;5044225;28;20029;-75
2023/07/20 02:51:52;;;;;;;11.37;6.47;;;;;;;11.74;100.00;100726.03;5026962;28;20049;-75
2023/07/20 02:54:18;;;;;;;11.30;6.33;;;;;;;11.75;100.00;100730.38;5043744;28;20016;-75
2023/07/20 02:56:43;;;;;;;10.82;6.35;;;;;;;11.76;100.00;100729.38;4998836;28;20099;-75
2023/07/20 02:59:09;;;;;;;13.80;6.60;;;;;;;11.79;100.00;100723.69;5027595;28;20545;-75
2023/07/20 03:01:34;;;;;;;8.50;6.00;;;;;;;11.82;100.00;100724.19;5004630;28;20068;-75
2023/07/20 03:04:00;;;;;;;17.67;6.90;;;;;;;11.79;100.00;100716.50;5044747;28;20028;-75
2023/07/20 03:06:25;;;;;;;9.97;5.87;;;;;;;11.80;100.00;100720.84;5043532;28;20029;-75
2023/07/20 03:08:53;;;;;;;13.10;5.43;;;;;;;11.87;100.00;100730.84;5026782;28;20029;-75
2023/07/20 03:11:20;;;;;;;14.73;5.78;;;;;;;11.89;100.00;100731.53;5026967;28;20047;-75
2023/07/20 03:13:46;;;;;;;12.15;5.80;;;;;;;11.93;100.00;100740.91;5026619;28;20032;-75
2023/07/20 03:16:15;;;;;;;11.85;5.70;;;;;;;11.95;100.00;100739.72;5010707;28;20040;-74
2023/07/20 03:18:41;;;;;;;10.50;5.15;;;;;;;11.98;100.00;100738.53;5027074;28;20123;-74
2023/07/20 03:21:11;;;;;;;10.38;5.38;;;;;;;11.99;100.00;100745.59;5042572;28;20055;-74
2023/07/20 03:23:36;;;;;;;11.10;5.03;;;;;;;12.05;100.00;100750.22;5026602;28;20093;-75
2023/07/20 03:26:02;;;;;;;8.57;5.15;;;;;;;12.05;100.00;100744.88;5023396;28;20033;-75
2023/07/20 03:28:27;;;;;;;7.03;4.37;;;;;;;12.08;100.00;100736.53;5026826;28;20029;-75
2023/07/20 03:30:54;;;;;;;8.60;3.83;;;;;;;12.04;100.00;100740.53;5026642;28;20385;-74
2023/07/20 03:33:21;;;;;;;9.13;3.67;;;;;;;12.04;100.00;100735.19;5026465;28;20024;-74
2023/07/20 03:35:46;;;;;;;6.13;3.25;;;;;;;12.05;100.00;100728.81;5012232;28;20024;-75
2023/07/20 03:38:12;;;;;;;7.50;3.20;;;;;;;11.99;100.00;100729.53;5030742;28;20486;-75
2023/07/20 03:40:37;;;;;;;6.47;3.33;;;;;;;12.00;100.00;100733.84;5047656;28;20120;-74
2023/07/20 03:43:03;;;;;;;9.90;3.20;;;;;;;11.93;100.00;100723.00;5048038;28;20040;-75
2023/07/20 03:45:28;;;;;;;7.20;2.77;;;;;;;11.91;100.00;100732.22;5030912;28;20021;-75
2023/07/20 03:47:53;;;;;;;9.47;2.33;;;;;;;11.97;100.00;100726.19;5047184;28;20063;-75
2023/07/20 03:50:19;;;;;;;11.57;2.73;;;;;;;11.93;100.00;100727.53;5010152;28;20025;-75
2023/07/20 03:52:44;;;;;;;6.33;2.27;;;;;;;11.94;100.00;100724.69;5030131;28;20041;-75
2023/07/20 03:55:10;;;;;;;2.17;1.90;;;;;;;11.94;100.00;100719.34;5014059;28;20025;-75
2023/07/20 03:57:36;;;;;;;8.38;2.75;;;;;;;11.99;100.00;100719.66;5030502;28;20083;-74
2023/07/20 04:00:02;;;;;;;6.37;2.23;;;;;;;12.02;100.00;100707.78;5007795;28;20025;-75
2023/07/20 04:02:38;;;;;;;8.25;2.05;;;;;;;11.99;100.00;100708.94;5047950;28;20525;-75
2023/07/20 04:05:04;;;;;;;6.63;2.20;;;;;;;12.04;100.00;100706.59;5030215;28;20070;-75
2023/07/20 04:07:29;;;;;;;8.85;2.30;;;;;;;12.05;100.00;100696.72;5046802;28;20029;-75
2023/07/20 04:09:54;;;;;;;5.30;3.20;;;;;;;12.16;100.00;100703.53;5013765;28;20060;-75
2023/07/20 04:12:20;;;;;;;15.67;2.27;;;;;;;12.24;100.00;100700.81;5048032;28;20032;-75
2023/07/20 04:14:45;;;;;;;2.40;1.90;;;;;;;12.32;100.00;100700.78;5046669;28;20049;-75
2023/07/20 04:17:13;;;;;;;14.90;2.00;;;;;;;12.40;100.00;100707.94;5030166;28;20341;-75
2023/07/20 04:19:38;;;;;;;4.65;1.70;;;;;;;12.43;100.00;100704.91;5046729;28;20454;-75
2023/07/20 04:22:04;;;;;;;3.15;2.05;;;;;;;12.52;100.00;100706.53;5042415;28;20332;-75
2023/07/20 04:24:29;;;;;;;5.05;2.55;;;;;;;12.61;100.00;100697.44;5029958;28;20071;-74
2023/07/20 04:26:55;;;;;;;5.37;1.90;;;;;;;12.74;100.00;100701.38;5036353;28;20128;-75
2023/07/20 04:29:20;;;;;;;7.40;1.97;;;;;;;12.76;100.00;100691.31;5030227;28;20506;-75
2023/07/20 04:31:45;;;;;;;5.10;1.37;;;;;;;12.81;100.00;100687.09;5045827;28;20261;-75
2023/07/20 04:34:11;;;;;;;7.03;2.07;;;;;;;12.92;100.00;100690.34;5013129;28;20322;-75
2023/07/20 04:36:36;;;;;;;4.30;1.57;;;;;;;12.90;100.00;100682.53;5029931;28;20470;-75
2023/07/20 04:39:04;;;;;;;5.15;1.63;;;;;;;13.07;100.00;100694.75;5029845;28;20119;-75
2023/07/20 04:41:34;;;;;;;5.97;1.63;;;;;;;13.12;100.00;100693.41;5029471;28;20108;-75
2023/07/20 04:44:00;;;;;;;6.05;2.08;;;;;;;13.23;100.00;100698.34;5029301;28;20155;-75
2023/07/20 04:46:28;;;;;;;7.20;2.20;;;;;;;13.21;100.00;100693.13;5028848;28;20033;-75
2023/07/20 04:48:54;;;;;;;4.93;1.70;;;;;;;13.15;100.00;100682.31;5023528;28;20037;-75
2023/07/20 04:51:20;;;;;;;3.77;1.70;;;;;;;13.19;100.00;100691.66;5029728;28;20102;-75
2023/07/20 04:53:47;;;;;;;6.90;1.80;;;;;;;13.07;100.00;100692.09;5029542;28;20120;-75
2023/07/20 04:56:13;;;;;;;5.07;1.87;;;;;;;13.17;100.00;100691.00;5023366;28;20111;-75
2023/07/20 04:58:38;;;;;;;5.22;2.40;;;;;;;13.08;100.00;100683.00;5029797;28;20021;-74
2023/07/20 05:01:04;;;;;;;4.17;1.80;;;;;;;13.31;100.00;100692.91;5028917;28;20547;-75
2023/07/20 05:03:30;;;;;;;5.40;1.48;;;;;;;13.39;100.00;100683.94;5040110;28;20022;-74
2023/07/20 05:05:57;;;;;;;5.07;2.10;;;;;;;13.52;100.00;100678.81;5046941;28;20024;-75
2023/07/20 05:08:22;;;;;;;8.73;3.00;;;;;;;13.79;100.00;100684.53;5018671;28;20037;-75
2023/07/20 05:10:48;;;;;;;5.17;1.73;;;;;;;13.93;100.00;100681.88;5029426;28;20036;-75
2023/07/20 05:13:13;;;;;;;7.50;1.87;;;;;;;14.13;100.00;100679.44;5006846;28;20029;-75
2023/07/20 05:15:39;;;;;;;5.70;1.70;;;;;;;14.03;100.00;100657.44;5029344;28;20271;-75
2023/07/20 05:18:06;;;;;;;4.93;1.50;;;;;;;14.38;100.00;100663.00;5046114;28;20258;-75
2023/07/20 05:20:33;;;;;;;4.33;0.93;;;;;;;14.61;100.00;100649.44;5045927;28;20025;-75
2023/07/20 05:23:00;;;;;;;6.35;1.20;;;;;;;14.78;100.00;100637.41;5027424;28;20033;-75
2023/07/20 05:25:25;;;;;;;6.13;1.48;;;;;;;14.77;100.00;100618.78;5007652;28;20048;-74
2023/07/20 05:27:52;;;;;;;4.03;1.33;;;;;;;15.11;100.00;100601.91;5044630;28;20037;-75
2023/07/20 05:30:17;;;;;;;6.60;1.17;;;;;;;15.46;100.00;100601.94;5046639;28;20036;-75
2023/07/20 05:32:45;;;;;;;5.13;1.30;;;;;;;15.58;100.00;100549.19;5028409;28;20048;-75
2023/07/20 05:35:11;;;;;;;3.72;1.20;;;;;;;16.33;100.00;100532.28;5047460;28;20267;-75
2023/07/20 05:37:38;;;;;;;5.38;1.50;;;;;;;16.97;100.00;100442.66;5045342;28;20057;-73
2023/07/20 05:40:04;;;;;;;;;;;;;;;18.09;100.00;100345.09;5012379;28;20033;-73
2023/07/20 05:42:32;;;;;;;3.88;0.80;;;;;;;18.54;100.00;100134.84;5044241;28;20316;-72
2023/07/20 05:44:57;;;;;;;3.70;0.97;;;;;;;19.02;100.00;99995.13;5044855;28;20033;-73
2023/07/20 05:47:23;;;;;;;0.93;0.60;;;;;;;19.85;100.00;99922.66;5027950;28;20037;-72
2023/07/20 05:49:48;;;;;;;2.42;0.70;;;;;;;19.78;100.00;99738.69;5045284;28;20083;-73
2023/07/20 05:52:14;;;;;;;2.97;0.80;;;;;;;20.42;100.00;99683.16;5044489;28;20036;-73
2023/07/20 05:54:39;;;;;;;3.47;0.50;;;;;;;20.02;100.00;99673.47;5046358;28;20074;-73
2023/07/20 05:57:05;;;;;;;3.30;0.70;;;;;;;20.40;100.00;99685.31;5045961;28;20159;-73
2023/07/20 05:59:31;;;;;;;1.65;0.50;;;;;;;20.20;100.00;99578.28;5045882;28;20097;-73
2023/07/20 06:01:56;;;;;;;;;;;;;;;20.27;100.00;99556.41;5046476;28;20306;-73
2023/07/20 06:04:22;;;;;;;2.80;0.90;;;;;;;20.53;100.00;99591.91;5045619;28;20436;-72
2023/07/20 06:06:47;;;;;;;2.90;0.70;;;;;;;20.77;100.00;99668.41;5045429;28;20036;-72
2023/07/20 06:09:13;;;;;;;5.35;0.80;;;;;;;21.13;100.00;99598.16;5039651;28;20690;-73
2023/07/20 06:11:39;;;;;;;4.13;0.98;;;;;;;21.01;100.00;99430.94;5044054;28;20029;-73
2023/07/20 06:14:05;;;;;;;4.88;1.23;;;;;;;20.73;100.00;99550.66;5045090;28;20385;-73
2023/07/20 06:16:30;;;;;;;5.15;1.00;;;;;;;20.49;100.00;99616.03;5045790;28;20029;-73
2023/07/20 06:18:56;;;;;;;1.00;0.67;;;;;;;21.48;100.00;99755.91;5045167;28;20021;-73
2023/07/20 06:21:21;;;;;;;4.32;0.70;;;;;;;22.12;97.53;99661.78;5011421;28;20511;-73
2023/07/20 06:23:47;;;;;;;3.20;1.10;;;;;;;20.55;97.02;99492.97;5045255;28;20056;-72
2023/07/20 06:26:12;;;;;;;2.30;0.90;;;;;;;20.46;97.78;99581.25;5045656;28;20306;-72
2023/07/20 06:28:37;;;;;;;4.63;1.20;;;;;;;21.56;94.47;99632.41;5027503;28;20479;-73
2023/07/20 06:31:03;;;;;;;2.97;1.17;;;;;;;20.88;95.27;99640.28;5045120;28;20033;-72
2023/07/20 06:33:29;;;;;;;4.97;1.30;;;;;;;20.26;92.60;99375.13;5044696;28;20274;-72
2023/07/20 06:35:56;;;;;;;2.38;0.88;;;;;;;21.06;94.23;99753.06;5044070;28;20036;-73
2023/07/20 06:38:23;;;;;;;4.22;1.13;;;;;;;21.05;92.19;99686.31;5027719;28;20528;-72
2023/07/20 06:40:49;;;;;;;5.07;1.38;;;;;;;20.70;92.29;99646.06;5044999;28;20029;-73
2023/07/20 06:43:14;;;;;;;4.03;1.13;;;;;;;21.17;92.67;99827.25;5045000;28;20078;-73
2023/07/20 06:45:40;;;;;;;5.50;1.57;;;;;;;20.45;91.50;99645.50;5027305;28;20072;-72
2023/07/20 06:48:06;;;;;;;6.68;1.42;;;;;;;20.21;90.76;99607.03;5045270;28;20287;-72
2023/07/20 06:50:31;;;;;;;8.45;2.03;;;;;;;21.27;91.32;99906.91;5045313;28;20451;-72
2023/07/20 06:52:57;;;;;;;5.00;1.50;;;;;;;20.84;88.36;99615.56;5044977;28;20033;-73
2023/07/20 06:55:26;;;;;;;3.08;2.03;;;;;;;21.14;86.65;99576.22;5043535;28;20787;-72
2023/07/20 06:57:51;;;;;;;8.20;2.53;;;;;;;21.31;87.79;99766.06;5026912;28;20029;-73
2023/07/20 07:00:17;;;;;;;7.10;2.00;;;;;;;21.04;83.74;99408.69;5045145;28;20025;-71
2023/07/20 07:02:42;;;;;;;7.93;2.28;;;;;;;21.52;85.29;99714.66;5044192;28;20533;-72
2023/07/20 07:05:08;;;;;;;4.73;1.70;;;;;;;21.04;85.44;99606.78;5010691;28;20389;-75
2023/07/20 07:07:33;;;;;;;3.40;1.48;;;;;;;20.85;85.60;99589.25;5044771;28;20280;-72
2023/07/20 07:09:59;;;;;;;6.50;2.17;;;;;;;20.66;88.37;99814.72;5043999;28;20111;-72
2023/07/20 07:12:25;;;;;;;4.43;1.65;;;;;;;20.72;84.82;99565.25;5044315;28;20028;-72
2023/07/20 07:14:50;;;;;;;7.50;2.23;;;;;;;20.82;87.82;99855.59;5044475;28;20079;-72
2023/07/20 07:17:15;;;;;;;5.97;2.00;;;;;;;21.23;83.39;99622.66;5043493;28;20071;-72
2023/07/20 07:19:42;;;;;;;5.30;1.67;;;;;;;20.57;83.19;99461.03;5027457;28;20037;-72
2023/07/20 07:22:07;;;;;;;6.15;1.95;;;;;;;20.59;85.44;99708.34;5042196;28;20129;-72
2023/07/20 07:24:36;;;;;;;10.50;2.17;;;;;;;21.03;87.05;99944.31;5044800;28;20064;-75
2023/07/20 07:27:01;;;;;;;3.33;1.67;;;;;;;21.31;81.30;99500.03;5039845;28;20128;-75
2023/07/20 07:29:27;;;;;;;5.65;2.08;;;;;;;20.17;84.07;99573.38;5027054;28;20150;-74
2023/07/20 07:31:52;;;;;;;4.40;2.05;;;;;;;20.88;86.84;99911.56;5044227;28;20081;-75
2023/07/20 07:34:18;;;;;;;9.67;2.03;;;;;;;20.25;85.17;99623.59;5039020;28;20565;-72
2023/07/20 07:36:43;;;;;;;3.40;1.73;;;;;;;19.14;88.55;99638.03;5042515;28;20041;-75
2023/07/20 07:39:09;;;;;;;11.82;1.90;;;;;;;18.83;90.76;99767.28;5026774;28;20021;-74
2023/07/20 07:41:35;;;;;;;4.78;1.75;;;;;;;19.55;89.50;99833.53;5026530;28;20429;-74
2023/07/20 07:44:00;;;;;;;5.28;1.92;;;;;;;19.30;87.11;99596.59;5044271;28;20056;-74
2023/07/20 07:46:25;;;;;;;4.73;1.73;;;;;;;19.23;90.79;99844.88;5044447;28;20048;-74
2023/07/20 07:48:51;;;;;;;7.20;1.50;;;;;;;19.07;92.56;99883.53;5026340;28;20103;-74
2023/07/20 07:51:16;;;;;;;4.43;1.53;;;;;;;19.24;93.44;99992.63;5044821;28;20029;-74
2023/07/20 07:53:42;;;;;;;6.90;1.70;;;;;;;20.30;89.64;99956.19;5026017;28;20118;-73
2023/07/20 07:56:10;;;;;;;4.30;1.80;;;;;;;19.47;89.86;99774.41;5044315;28;20065;-73
2023/07/20 07:58:35;;;;;;;4.38;1.77;;;;;;;18.54;89.89;99604.22;5004014;28;20168;-73
2023/07/20 08:01:01;;;;;;;4.90;2.80;;;;;;;17.93;92.79;99660.56;5043863;28;20127;-72
2023/07/20 08:03:26;;;;;;;5.23;1.60;;;;;;;17.33;97.87;99806.47;5044365;28;20515;-73
2023/07/20 08:05:55;;;;;;;12.80;2.50;;;;;;;17.32;100.00;99910.03;5043996;28;20798;-74
2023/07/20 08:08:21;;;;;;;6.65;2.05;;;;;;;18.30;100.00;100163.63;5043831;28;20486;-74
2023/07/20 08:10:47;;;;;;;4.28;1.77;;;;;;;18.82;99.61;100146.09;5025997;28;20064;-74
2023/07/20 08:13:12;;;;;;;7.47;2.00;;;;;;;18.61;99.92;100096.88;5009499;28;20041;-73
2023/07/20 08:15:38;;;;;;;6.55;2.33;;;;;;;18.01;100.00;100053.69;5026244;28;20101;-74
2023/07/20 08:18:03;;;;;;;8.40;2.47;;;;;;;18.11;100.00;100046.66;4997533;28;20025;-73
2023/07/20 08:20:28;;;;;;;6.47;2.13;;;;;;;18.05;100.00;100223.16;5044273;28;20470;-74
2023/07/20 08:22:55;;;;;;;7.27;2.37;;;;;;;18.55;100.00;100092.41;5029154;28;20371;-74
2023/07/20 08:25:20;;;;;;;5.07;2.05;;;;;;;19.95;100.00;100341.94;5029813;28;20032;-74
2023/07/20 08:27:47;;;;;;;7.53;1.85;;;;;;;20.41;95.32;100101.69;5047339;28;20036;-74
2023/07/20 08:30:13;;;;;;;7.95;1.63;;;;;;;20.50;88.82;99799.28;5047713;28;20560;-73
2023/07/20 08:32:38;;;;;;;6.82;1.73;;;;;;;20.08;86.60;99547.81;5029152;28;20112;-73
2023/07/20 08:35:04;;;;;;;8.17;1.73;;;;;;;20.11;83.93;99401.03;5047334;28;20024;-73
2023/07/20 08:37:29;;;;;;;4.47;1.67;;;;;;;19.63;86.90;99583.25;5047427;28;20032;-74
2023/07/20 08:39:54;;;;;;;8.27;1.53;;;;;;;19.11;88.34;99603.34;5045846;28;20029;-74
2023/07/20 08:42:22;;;;;;;5.27;2.20;;;;;;;20.13;89.04;99902.81;5039626;28;20033;-72
2023/07/20 08:44:51;;;;;;;8.52;1.85;;;;;;;19.27;87.40;99575.47;5047130;28;20051;-71
2023/07/20 08:47:16;;;;;;;7.45;1.88;;;;;;;19.01;89.56;99717.63;5040503;28;20588;-72
2023/07/20 08:49:42;;;;;;;5.43;2.00;;;;;;;20.85;88.18;100053.13;5029567;28;20025;-72
2023/07/20 08:52:08;;;;;;;4.78;1.73;;;;;;;21.02;85.02;99819.75;5011642;28;20781;-72
2023/07/20 08:54:34;;;;;;;5.80;1.70;;;;;;;19.44;86.27;99575.44;5029459;28;20029;-72
2023/07/20 08:57:04;;;;;;;6.82;1.85;;;;;;;18.75;90.34;99706.28;5012693;28;20098;-72
2023/07/20 08:59:30;;;;;;;3.85;1.73;;;;;;;17.96;100.00;100164.25;5029837;28;20084;-72
2023/07/20 09:02:00;;;;;;;11.50;1.63;;;;;;;17.61;100.00;100286.28;5028959;28;20032;-73
2023/07/20 09:04:25;;;;;;;4.65;1.63;;;;;;;17.78;100.00;100624.06;5047018;28;20036;-73
2023/07/20 09:06:51;;;;;;;8.33;1.67;;;;;;;18.41;100.00;100651.22;5028833;28;20637;-74
2023/07/20 09:09:17;;;;;;;6.95;1.40;;;;;;;18.35;100.00;100474.56;5047051;28;20041;-74
2023/07/20 09:11:42;;;;;;;6.67;1.70;;;;;;;18.60;100.00;100421.53;5045768;28;20028;-72
2023/07/20 09:14:10;;;;;;;6.23;1.50;;;;;;;19.04;100.00;100522.44;5027944;28;20119;-72
2023/07/20 09:16:54;;;;;;;3.00;0.93;;;;;;;19.64;100.00;99997.25;5029042;28;20271;-72
2023/07/20 09:19:20;;;;;;;4.60;0.90;;;;;;;20.77;94.36;99943.16;5040451;28;20090;-74
2023/07/20 09:21:50;;;;;;;4.20;0.88;;;;;;;21.47;88.61;99776.00;5046397;28;20032;-72
2023/07/20 09:24:17;;;;;;;2.63;0.80;;;;;;;22.60;85.82;99877.44;5039435;28;20106;-72
2023/07/20 09:26:44;;;;;;;4.65;1.38;;;;;;;22.45;83.36;99714.16;5028562;28;20031;-71
2023/07/20 09:29:11;;;;;;;3.63;1.10;;;;;;;21.87;82.75;99648.91;5046548;28;20021;-73
2023/07/20 09:31:36;;;;;;;;;;;;;;;20.66;84.54;99538.13;5028583;28;20266;-72
2023/07/20 09:34:03;;;;;;;6.03;0.90;;;;;;;19.92;87.49;99651.63;5027676;28;20031;-72
2023/07/20 09:36:29;;;;;;;1.33;0.65;;;;;;;20.01;94.20;100056.50;5028430;28;20465;-72
2023/07/20 09:38:55;;;;;;;2.47;0.63;;;;;;;19.28;94.38;99874.75;5046259;28;20474;-72
2023/07/20 09:41:21;;;;;;;3.97;1.45;;;;;;;19.63;94.52;100003.72;5028717;28;20035;-72
2023/07/20 09:43:47;;;;;;;2.35;0.70;;;;;;;19.67;90.56;99761.22;5046099;28;20445;-71
2023/07/20 09:46:13;;;;;;;1.67;0.50;;;;;;;20.29;89.13;99886.81;5045061;28;20024;-71
2023/07/20 09:48:39;;;;;;;9.13;1.65;;;;;;;21.65;87.76;100072.75;5028506;28;20021;-72
2023/07/20 09:51:06;;;;;;;5.38;0.70;;;;;;;21.62;85.80;99902.97;5028382;28;20540;-72
2023/07/20 09:53:32;;;;;;;3.05;0.70;;;;;;;21.76;84.31;99843.63;5028048;28;20045;-72
2023/07/20 09:55:58;;;;;;;2.65;0.60;;;;;;;19.84;88.68;99755.81;5045124;28;20027;-72
2023/07/20 09:58:25;;;;;;;1.73;0.40;;;;;;;20.11;95.09;100185.94;5046293;28;20081;-72
2023/07/20 10:00:52;;;;;;;3.95;0.93;;;;;;;19.87;95.32;100088.47;5046062;28;20031;-72
2023/07/20 10:03:20;;;;;;;2.30;0.52;;;;;;;18.95;97.11;99960.09;5045691;28;20119;-72
2023/07/20 10:06:00;;;;;;;1.00;0.50;;;;;;;19.25;94.94;99939.34;5027761;28;20063;-72
2023/07/20 10:08:26;;;;;;;0.88;0.43;;;;;;;19.82;94.86;100086.47;5039718;28;20045;-72
2023/07/20 10:10:51;;;;;;;4.30;0.60;;;;;;;20.06;90.98;99869.66;5027658;28;20028;-72
2023/07/20 10:13:21;;;;;;;2.83;0.50;;;;;;;20.20;91.48;99962.28;5044137;28;20040;-71
2023/07/20 10:15:53;;;;;;;0.70;0.50;;;;;;;20.64;91.00;100022.13;5027916;28;20499;-71
2023/07/20 10:18:29;;;;;;;1.88;0.50;;;;;;;20.89;87.99;99923.25;5022591;28;20380;-72
2023/07/20 10:20:59;;;;;;;3.63;0.63;;;;;;;20.86;85.88;99780.75;5045228;28;20095;-72
2023/07/20 10:23:26;;;;;;;2.05;0.70;;;;;;;21.48;86.75;99989.44;5044701;28;20050;-72
2023/07/20 10:25:52;;;;;;;4.25;1.20;;;;;;;21.21;85.95;99853.63;5045149;28;20566;-72
2023/07/20 10:28:18;;;;;;;3.50;0.60;;;;;;;20.63;85.40;99693.19;5027765;28;20021;-73
2023/07/20 10:30:44;;;;;;;5.03;0.90;;;;;;;20.33;89.28;99906.94;5045166;28;20036;-73
2023/07/20 10:33:10;;;;;;;2.20;0.98;;;;;;;20.74;89.72;100076.53;5026684;28;20039;-73
2023/07/20 10:36:01;;;;;;;1.08;0.50;;;;;;;21.81;86.90;100112.63;5027371;28;20028;-73
2023/07/20 10:38:52;;;;;;;4.40;1.13;;;;;;;21.23;85.00;99783.59;5036537;28;20142;-72
2023/07/20 10:41:26;;;;;;;1.52;0.60;;;;;;;20.07;86.51;99624.75;5039699;28;20102;-74
2023/07/20 10:43:58;;;;;;;1.52;0.40;;;;;;;20.95;84.23;99741.25;5042722;28;20049;-72
2023/07/20 10:46:38;;;;;;;2.38;0.30;;;;;;;21.33;82.13;99685.19;5043868;28;20021;-72
2023/07/20 10:49:06;;;;;;;3.20;1.33;;;;;;;21.43;81.91;99736.88;5044584;28;20099;-72
2023/07/20 10:51:49;;;;;;;0.93;0.50;;;;;;;21.05;81.39;99554.16;5027351;28;20260;-72
2023/07/20 10:54:17;;;;;;;1.25;0.40;;;;;;;19.86;84.26;99490.97;5026682;28;20037;-73
2023/07/20 10:56:44;;;;;;;0.57;0.20;;;;;;;21.04;84.64;99910.69;5024265;28;20644;-73
2023/07/20 10:59:39;;;;;;;0.98;0.45;;;;;;;22.28;79.42;99739.63;5038537;28;20027;-72
2023/07/20 11:02:08;;;;;;;;;;;;;;;22.36;79.10;99781.00;5044296;28;20090;-72
2023/07/20 11:04:44;;;;;;;1.98;0.43;;;;;;;21.66;78.02;99485.03;5023568;28;19915;-73
2023/07/20 11:07:10;;;;;;;3.30;0.40;;;;;;;21.02;79.81;99497.69;5039793;28;20124;-73
2023/07/20 11:09:38;;;;;;;2.30;0.30;;;;;;;19.87;84.41;99605.53;5003942;28;20111;-72
2023/07/20 11:12:13;;;;;;;4.00;0.70;;;;;;;18.94;86.64;99530.31;5028041;28;20037;-72
2023/07/20 11:14:44;;;;;;;3.90;0.88;;;;;;;18.16;95.73;99915.50;5043283;28;20025;-72
2023/07/20 11:17:13;;;;;;;6.22;1.15;;;;;;;17.84;100.00;100399.09;5043891;28;20040;-70
2023/07/20 11:19:40;;;;;;;3.03;0.95;;;;;;;17.16;100.00;100651.38;5026917;28;20075;-71
2023/07/20 11:22:07;;;;;;;7.72;1.65;;;;;;;16.86;100.00;100754.22;5015370;28;20255;-72